sensor_id;sensor_type;location;lat;lon;timestamp;pressure;altitude;pressure_sealevel;temperature;humidity
75617;BME280;64200;55.426;37.758;2023-08-06T00:04:02;99590.84;;;22.72;61.62
75617;BME280;64200;55.426;37.758;2023-08-06T00:09:03;99599.31;;;22.86;61.32
75617;BME280;64200;55.426;37.758;2023-08-06T00:14:03;99601.00;;;22.47;62.53
75617;BME280;64200;55.426;37.758;2023-08-06T00:19:04;99596.19;;;22.55;62.36
75617;BME280;64200;55.426;37.758;2023-08-06T00:24:04;99601.06;;;22.54;62.47
75617;BME280;64200;55.426;37.758;2023-08-06T00:29:05;99598.47;;;22.56;62.21
75617;BME280;64200;55.426;37.758;2023-08-06T00:34:05;99600.88;;;22.52;62.24
75617;BME280;64200;55.426;37.758;2023-08-06T00:39:06;99604.94;;;22.43;62.53
75617;BME280;64200;55.426;37.758;2023-08-06T00:44:07;99612.44;;;22.54;61.89
75617;BME280;64200;55.426;37.758;2023-08-06T00:49:08;99609.59;;;22.54;61.83
75617;BME280;64200;55.426;37.758;2023-08-06T00:54:09;99606.59;;;22.39;62.62
75617;BME280;64200;55.426;37.758;2023-08-06T00:59:10;99611.38;;;22.31;62.65
75617;BME280;64200;55.426;37.758;2023-08-06T01:04:12;99610.56;;;22.36;62.81
75617;BME280;64200;55.426;37.758;2023-08-06T01:14:33;99622.13;;;22.38;62.38
75617;BME280;64200;55.426;37.758;2023-08-06T01:19:38;99615.44;;;22.35;63.03
75617;BME280;64200;55.426;37.758;2023-08-06T01:24:39;99616.25;;;22.09;63.58
75617;BME280;64200;55.426;37.758;2023-08-06T01:30:34;99615.38;;;22.01;63.72
75617;BME280;64200;55.426;37.758;2023-08-06T01:35:28;99631.56;;;22.06;63.79
75617;BME280;64200;55.426;37.758;2023-08-06T01:40:30;99612.53;;;22.01;63.89
75617;BME280;64200;55.426;37.758;2023-08-06T01:45:32;99620.31;;;21.87;64.52
75617;BME280;64200;55.426;37.758;2023-08-06T01:50:32;99625.66;;;21.90;64.22
75617;BME280;64200;55.426;37.758;2023-08-06T01:55:33;99626.19;;;22.02;63.96
75617;BME280;64200;55.426;37.758;2023-08-06T02:00:33;99634.72;;;21.89;64.45
75617;BME280;64200;55.426;37.758;2023-08-06T02:05:34;99634.81;;;21.83;64.58
75617;BME280;64200;55.426;37.758;2023-08-06T02:10:34;99632.44;;;21.74;64.88
75617;BME280;64200;55.426;37.758;2023-08-06T02:15:35;99648.81;;;21.95;64.42
75617;BME280;64200;55.426;37.758;2023-08-06T02:20:35;99650.75;;;22.00;64.08
75617;BME280;64200;55.426;37.758;2023-08-06T02:25:36;99656.13;;;22.03;63.90
75617;BME280;64200;55.426;37.758;2023-08-06T02:30:36;99660.81;;;21.87;64.21
75617;BME280;64200;55.426;37.758;2023-08-06T02:35:37;99661.56;;;22.15;63.73
75617;BME280;64200;55.426;37.758;2023-08-06T02:40:45;99659.81;;;22.11;63.66
75617;BME280;64200;55.426;37.758;2023-08-06T02:45:46;99661.72;;;21.96;64.30
75617;BME280;64200;55.426;37.758;2023-08-06T02:50:46;99655.34;;;21.89;64.42
75617;BME280;64200;55.426;37.758;2023-08-06T02:55:47;99642.59;;;21.96;64.33
75617;BME280;64200;55.426;37.758;2023-08-06T03:01:05;99641.81;;;22.09;64.12
75617;BME280;64200;55.426;37.758;2023-08-06T03:06:05;99648.59;;;22.19;64.15
75617;BME280;64200;55.426;37.758;2023-08-06T03:11:06;99655.66;;;22.39;63.64
75617;BME280;64200;55.426;37.758;2023-08-06T03:16:06;99655.66;;;22.53;62.98
75617;BME280;64200;55.426;37.758;2023-08-06T03:21:07;99644.09;;;22.72;62.46
75617;BME280;64200;55.426;37.758;2023-08-06T03:26:07;99659.88;;;22.94;62.00
75617;BME280;64200;55.426;37.758;2023-08-06T03:31:08;99650.44;;;22.99;61.44
75617;BME280;64200;55.426;37.758;2023-08-06T03:36:08;99646.91;;;22.85;61.29
75617;BME280;64200;55.426;37.758;2023-08-06T03:41:09;99655.88;;;22.89;61.57
75617;BME280;64200;55.426;37.758;2023-08-06T03:46:09;99653.00;;;23.24;61.04
75617;BME280;64200;55.426;37.758;2023-08-06T03:51:10;99653.28;;;23.62;60.21
75617;BME280;64200;55.426;37.758;2023-08-06T03:56:10;99655.56;;;23.85;59.91
75617;BME280;64200;55.426;37.758;2023-08-06T04:01:11;99660.25;;;24.03;59.10
75617;BME280;64200;55.426;37.758;2023-08-06T04:06:12;99655.34;;;24.12;59.18
75617;BME280;64200;55.426;37.758;2023-08-06T04:11:12;99652.72;;;24.22;58.50
75617;BME280;64200;55.426;37.758;2023-08-06T04:16:13;99658.16;;;24.48;58.55
75617;BME280;64200;55.426;37.758;2023-08-06T04:21:15;99651.94;;;24.58;57.97
75617;BME280;64200;55.426;37.758;2023-08-06T04:26:15;99661.72;;;24.78;57.71
75617;BME280;64200;55.426;37.758;2023-08-06T04:31:16;99654.13;;;24.88;57.21
75617;BME280;64200;55.426;37.758;2023-08-06T04:36:17;99651.84;;;24.94;57.16
75617;BME280;64200;55.426;37.758;2023-08-06T04:41:17;99654.34;;;24.98;57.30
75617;BME280;64200;55.426;37.758;2023-08-06T04:46:18;99650.00;;;25.28;56.39
75617;BME280;64200;55.426;37.758;2023-08-06T04:51:18;99656.31;;;25.41;55.68
75617;BME280;64200;55.426;37.758;2023-08-06T04:56:19;99656.69;;;25.69;55.68
75617;BME280;64200;55.426;37.758;2023-08-06T05:01:19;99647.31;;;25.91;55.24
75617;BME280;64200;55.426;37.758;2023-08-06T05:06:20;99646.13;;;26.10;54.73
75617;BME280;64200;55.426;37.758;2023-08-06T05:11:20;99652.94;;;26.30;54.92
75617;BME280;64200;55.426;37.758;2023-08-06T05:16:21;99646.25;;;26.35;53.60
75617;BME280;64200;55.426;37.758;2023-08-06T05:21:21;99635.69;;;26.45;52.97
75617;BME280;64200;55.426;37.758;2023-08-06T05:26:22;99641.91;;;26.67;52.96
75617;BME280;64200;55.426;37.758;2023-08-06T05:31:22;99638.88;;;26.98;52.41
75617;BME280;64200;55.426;37.758;2023-08-06T05:36:23;99637.84;;;27.11;52.62
75617;BME280;64200;55.426;37.758;2023-08-06T05:41:23;99641.47;;;27.37;51.20
75617;BME280;64200;55.426;37.758;2023-08-06T05:46:24;99647.44;;;27.74;50.85
75617;BME280;64200;55.426;37.758;2023-08-06T05:51:26;99635.06;;;27.89;50.44
75617;BME280;64200;55.426;37.758;2023-08-06T05:56:26;99648.63;;;28.23;50.15
75617;BME280;64200;55.426;37.758;2023-08-06T06:01:27;99634.47;;;28.43;49.97
75617;BME280;64200;55.426;37.758;2023-08-06T06:06:28;99646.84;;;28.63;48.54
75617;BME280;64200;55.426;37.758;2023-08-06T06:11:28;99631.03;;;28.71;48.39
75617;BME280;64200;55.426;37.758;2023-08-06T06:16:29;99636.88;;;28.91;48.30
75617;BME280;64200;55.426;37.758;2023-08-06T06:21:29;99640.13;;;29.15;47.15
75617;BME280;64200;55.426;37.758;2023-08-06T06:26:30;99635.31;;;29.17;46.25
75617;BME280;64200;55.426;37.758;2023-08-06T06:31:30;99634.09;;;29.57;46.92
75617;BME280;64200;55.426;37.758;2023-08-06T06:36:31;99636.31;;;30.06;46.16
75617;BME280;64200;55.426;37.758;2023-08-06T06:41:31;99631.25;;;30.55;44.73
75617;BME280;64200;55.426;37.758;2023-08-06T06:46:33;99641.56;;;30.68;43.53
75617;BME280;64200;55.426;37.758;2023-08-06T06:51:33;99630.91;;;30.80;43.75
75617;BME280;64200;55.426;37.758;2023-08-06T06:56:34;99626.19;;;31.26;43.12
75617;BME280;64200;55.426;37.758;2023-08-06T07:01:34;99631.19;;;30.85;42.26
75617;BME280;64200;55.426;37.758;2023-08-06T07:06:35;99613.56;;;31.63;42.07
75617;BME280;64200;55.426;37.758;2023-08-06T07:11:35;99624.81;;;31.80;41.19
75617;BME280;64200;55.426;37.758;2023-08-06T07:16:36;99634.97;;;32.25;40.73
75617;BME280;64200;55.426;37.758;2023-08-06T07:21:37;99616.69;;;32.44;39.43
75617;BME280;64200;55.426;37.758;2023-08-06T07:26:37;99621.84;;;33.02;39.97
75617;BME280;64200;55.426;37.758;2023-08-06T07:31:38;99625.72;;;33.19;37.88
75617;BME280;64200;55.426;37.758;2023-08-06T07:36:38;99614.16;;;33.54;37.58
75617;BME280;64200;55.426;37.758;2023-08-06T07:41:39;99618.41;;;34.40;36.91
75617;BME280;64200;55.426;37.758;2023-08-06T07:46:40;99616.28;;;34.41;34.91
75617;BME280;64200;55.426;37.758;2023-08-06T07:51:41;99631.25;;;33.50;35.61
75617;BME280;64200;55.426;37.758;2023-08-06T07:56:41;99632.09;;;34.91;33.32
75617;BME280;64200;55.426;37.758;2023-08-06T08:01:42;99624.16;;;35.06;33.08
75617;BME280;64200;55.426;37.758;2023-08-06T08:06:42;99622.06;;;35.34;31.88
75617;BME280;64200;55.426;37.758;2023-08-06T08:11:43;99621.16;;;36.31;30.90
75617;BME280;64200;55.426;37.758;2023-08-06T08:16:43;99606.22;;;37.16;30.50
75617;BME280;64200;55.426;37.758;2023-08-06T08:21:44;99600.47;;;38.20;28.17
75617;BME280;64200;55.426;37.758;2023-08-06T08:26:44;99609.25;;;39.57;26.68
75617;BME280;64200;55.426;37.758;2023-08-06T08:31:45;99611.06;;;39.46;26.27
75617;BME280;64200;55.426;37.758;2023-08-06T08:36:46;99614.06;;;38.70;26.40
75617;BME280;64200;55.426;37.758;2023-08-06T08:41:47;99599.63;;;39.96;25.87
75617;BME280;64200;55.426;37.758;2023-08-06T08:46:48;99599.38;;;41.07;23.89
75617;BME280;64200;55.426;37.758;2023-08-06T08:51:50;99597.66;;;39.81;24.78
75617;BME280;64200;55.426;37.758;2023-08-06T08:56:53;99584.44;;;40.70;24.01
75617;BME280;64200;55.426;37.758;2023-08-06T09:01:55;99567.50;;;40.91;22.83
75617;BME280;64200;55.426;37.758;2023-08-06T09:06:58;99576.78;;;42.90;21.89
75617;BME280;64200;55.426;37.758;2023-08-06T09:12:08;99593.34;;;41.53;22.05
75617;BME280;64200;55.426;37.758;2023-08-06T09:17:11;99598.69;;;42.52;21.24
75617;BME280;64200;55.426;37.758;2023-08-06T09:22:12;99590.88;;;43.36;19.95
75617;BME280;64200;55.426;37.758;2023-08-06T09:27:14;99584.19;;;44.66;19.22
75617;BME280;64200;55.426;37.758;2023-08-06T09:32:15;99582.31;;;44.38;18.74
75617;BME280;64200;55.426;37.758;2023-08-06T09:37:15;99583.19;;;43.98;19.45
75617;BME280;64200;55.426;37.758;2023-08-06T09:42:16;99563.06;;;44.82;18.88
75617;BME280;64200;55.426;37.758;2023-08-06T09:47:16;99581.81;;;45.13;17.37
75617;BME280;64200;55.426;37.758;2023-08-06T09:52:18;99563.59;;;45.29;17.98
75617;BME280;64200;55.426;37.758;2023-08-06T09:57:19;99539.41;;;46.45;16.62
75617;BME280;64200;55.426;37.758;2023-08-06T10:02:23;99551.53;;;47.46;16.06
75617;BME280;64200;55.426;37.758;2023-08-06T10:07:25;99540.44;;;47.88;15.66
75617;BME280;64200;55.426;37.758;2023-08-06T10:12:28;99533.47;;;45.39;16.69
75617;BME280;64200;55.426;37.758;2023-08-06T10:17:30;99512.72;;;44.59;17.85
75617;BME280;64200;55.426;37.758;2023-08-06T10:22:32;99520.81;;;45.26;17.88
75617;BME280;64200;55.426;37.758;2023-08-06T10:27:35;99504.88;;;45.52;17.62
75617;BME280;64200;55.426;37.758;2023-08-06T10:32:58;99509.75;;;46.17;17.19
75617;BME280;64200;55.426;37.758;2023-08-06T10:38:28;99510.88;;;47.12;16.53
75617;BME280;64200;55.426;37.758;2023-08-06T10:43:36;99503.88;;;46.17;16.96
75617;BME280;64200;55.426;37.758;2023-08-06T10:48:45;99517.25;;;46.38;16.09
75617;BME280;64200;55.426;37.758;2023-08-06T10:53:48;99504.97;;;45.62;17.90
75617;BME280;64200;55.426;37.758;2023-08-06T10:58:50;99500.44;;;42.51;19.78
75617;BME280;64200;55.426;37.758;2023-08-06T11:03:50;99495.38;;;47.07;16.85
75617;BME280;64200;55.426;37.758;2023-08-06T11:08:54;99501.31;;;47.55;14.92
75617;BME280;64200;55.426;37.758;2023-08-06T11:13:55;99502.03;;;47.84;15.61
75617;BME280;64200;55.426;37.758;2023-08-06T11:18:55;99487.31;;;43.76;17.34
75617;BME280;64200;55.426;37.758;2023-08-06T11:23:57;99504.19;;;43.31;18.47
75617;BME280;64200;55.426;37.758;2023-08-06T11:28:58;99481.41;;;44.25;17.89
75617;BME280;64200;55.426;37.758;2023-08-06T11:33:58;99473.03;;;44.62;17.53
75617;BME280;64200;55.426;37.758;2023-08-06T11:39:00;99477.53;;;46.68;16.15
75617;BME280;64200;55.426;37.758;2023-08-06T11:44:01;99468.78;;;47.03;15.33
75617;BME280;64200;55.426;37.758;2023-08-06T11:49:01;99462.00;;;48.22;14.58
75617;BME280;64200;55.426;37.758;2023-08-06T11:54:02;99479.09;;;47.95;14.40
75617;BME280;64200;55.426;37.758;2023-08-06T11:59:02;99462.84;;;45.43;15.86
75617;BME280;64200;55.426;37.758;2023-08-06T12:04:04;99469.41;;;43.15;18.22
75617;BME280;64200;55.426;37.758;2023-08-06T12:09:05;99448.19;;;43.63;18.37
75617;BME280;64200;55.426;37.758;2023-08-06T12:14:06;99464.34;;;44.72;17.02
75617;BME280;64200;55.426;37.758;2023-08-06T12:19:06;99449.22;;;45.99;17.10
75617;BME280;64200;55.426;37.758;2023-08-06T12:24:07;99430.84;;;45.04;17.73
75617;BME280;64200;55.426;37.758;2023-08-06T12:29:07;99426.16;;;40.84;20.74
75617;BME280;64200;55.426;37.758;2023-08-06T12:34:08;99438.00;;;38.39;23.90
75617;BME280;64200;55.426;37.758;2023-08-06T12:39:08;99418.28;;;37.79;25.16
75617;BME280;64200;55.426;37.758;2023-08-06T12:44:09;99424.81;;;36.57;27.73
75617;BME280;64200;55.426;37.758;2023-08-06T12:49:10;99421.66;;;36.35;27.77
75617;BME280;64200;55.426;37.758;2023-08-06T12:54:10;99414.16;;;36.14;28.46
75617;BME280;64200;55.426;37.758;2023-08-06T12:59:11;99422.81;;;35.23;30.15
75617;BME280;64200;55.426;37.758;2023-08-06T13:04:12;99399.84;;;35.13;30.53
75617;BME280;64200;55.426;37.758;2023-08-06T13:09:13;99403.59;;;34.44;31.49
75617;BME280;64200;55.426;37.758;2023-08-06T13:14:14;99399.78;;;34.13;32.41
75617;BME280;64200;55.426;37.758;2023-08-06T13:19:14;99397.75;;;34.72;31.85
75617;BME280;64200;55.426;37.758;2023-08-06T13:24:15;99380.72;;;34.64;31.58
75617;BME280;64200;55.426;37.758;2023-08-06T13:29:16;99392.63;;;34.28;32.08
75617;BME280;64200;55.426;37.758;2023-08-06T13:34:16;99382.13;;;34.63;31.84
75617;BME280;64200;55.426;37.758;2023-08-06T13:39:16;99396.72;;;33.84;32.44
75617;BME280;64200;55.426;37.758;2023-08-06T13:44:17;99379.47;;;33.60;33.17
75617;BME280;64200;55.426;37.758;2023-08-06T13:49:18;99380.19;;;33.47;33.76
75617;BME280;64200;55.426;37.758;2023-08-06T13:54:18;99379.03;;;33.26;34.27
75617;BME280;64200;55.426;37.758;2023-08-06T13:59:20;99367.06;;;33.32;34.57
75617;BME280;64200;55.426;37.758;2023-08-06T14:04:21;99373.47;;;33.56;33.69
75617;BME280;64200;55.426;37.758;2023-08-06T14:09:22;99369.38;;;33.21;34.17
75617;BME280;64200;55.426;37.758;2023-08-06T14:14:22;99370.13;;;33.22;33.96
75617;BME280;64200;55.426;37.758;2023-08-06T14:19:26;99376.19;;;33.02;34.36
75617;BME280;64200;55.426;37.758;2023-08-06T14:24:26;99351.72;;;33.03;34.88
75617;BME280;64200;55.426;37.758;2023-08-06T14:29:27;99358.69;;;33.24;34.36
75617;BME280;64200;55.426;37.758;2023-08-06T14:34:27;99343.63;;;33.14;35.02
75617;BME280;64200;55.426;37.758;2023-08-06T14:39:28;99353.31;;;33.06;34.91
75617;BME280;64200;55.426;37.758;2023-08-06T14:44:29;99344.63;;;32.81;35.38
75617;BME280;64200;55.426;37.758;2023-08-06T14:49:29;99359.19;;;32.83;35.35
75617;BME280;64200;55.426;37.758;2023-08-06T14:54:30;99341.66;;;32.55;35.94
75617;BME280;64200;55.426;37.758;2023-08-06T14:59:31;99324.47;;;32.45;36.14
75617;BME280;64200;55.426;37.758;2023-08-06T15:04:31;99335.78;;;32.41;35.91
75617;BME280;64200;55.426;37.758;2023-08-06T15:09:32;99341.66;;;32.55;36.20
75617;BME280;64200;55.426;37.758;2023-08-06T15:14:32;99339.06;;;32.24;36.40
75617;BME280;64200;55.426;37.758;2023-08-06T15:19:33;99344.22;;;32.25;36.34
75617;BME280;64200;55.426;37.758;2023-08-06T15:24:33;99340.28;;;31.97;36.95
75617;BME280;64200;55.426;37.758;2023-08-06T15:29:34;99350.22;;;32.05;37.14
75617;BME280;64200;55.426;37.758;2023-08-06T15:34:35;99344.06;;;31.87;37.73
75617;BME280;64200;55.426;37.758;2023-08-06T15:39:35;99338.16;;;31.85;37.65
75617;BME280;64200;55.426;37.758;2023-08-06T15:44:36;99340.66;;;31.79;37.86
75617;BME280;64200;55.426;37.758;2023-08-06T15:49:36;99344.09;;;31.54;38.38
75617;BME280;64200;55.426;37.758;2023-08-06T15:54:37;99335.44;;;31.42;38.90
75617;BME280;64200;55.426;37.758;2023-08-06T15:59:37;99341.69;;;31.39;38.50
75617;BME280;64200;55.426;37.758;2023-08-06T16:04:38;99333.75;;;31.27;38.62
75617;BME280;64200;55.426;37.758;2023-08-06T16:09:38;99334.63;;;31.18;38.89
75617;BME280;64200;55.426;37.758;2023-08-06T16:14:39;99327.91;;;31.04;38.85
75617;BME280;64200;55.426;37.758;2023-08-06T16:19:42;99346.25;;;30.98;39.79
75617;BME280;64200;55.426;37.758;2023-08-06T16:24:43;99331.19;;;30.88;39.81
75617;BME280;64200;55.426;37.758;2023-08-06T16:29:43;99333.94;;;30.86;39.72
75617;BME280;64200;55.426;37.758;2023-08-06T16:34:46;99333.75;;;30.72;40.65
75617;BME280;64200;55.426;37.758;2023-08-06T16:39:48;99341.22;;;30.65;40.91
75617;BME280;64200;55.426;37.758;2023-08-06T16:44:49;99341.63;;;30.50;41.31
75617;BME280;64200;55.426;37.758;2023-08-06T16:49:49;99338.94;;;30.42;41.13
75617;BME280;64200;55.426;37.758;2023-08-06T16:54:50;99333.56;;;30.27;42.04
75617;BME280;64200;55.426;37.758;2023-08-06T16:59:51;99339.09;;;30.13;42.11
75617;BME280;64200;55.426;37.758;2023-08-06T17:04:51;99330.06;;;29.97;42.85
75617;BME280;64200;55.426;37.758;2023-08-06T17:09:52;99320.72;;;29.77;42.99
75617;BME280;64200;55.426;37.758;2023-08-06T17:14:52;99341.03;;;29.79;43.09
75617;BME280;64200;55.426;37.758;2023-08-06T17:19:53;99339.38;;;29.66;43.02
75617;BME280;64200;55.426;37.758;2023-08-06T17:24:53;99346.84;;;29.50;43.47
75617;BME280;64200;55.426;37.758;2023-08-06T17:29:54;99333.88;;;29.29;43.70
75617;BME280;64200;55.426;37.758;2023-08-06T17:34:54;99333.28;;;29.31;43.62
75617;BME280;64200;55.426;37.758;2023-08-06T17:39:55;99333.25;;;29.21;43.96
75617;BME280;64200;55.426;37.758;2023-08-06T17:44:55;99327.97;;;29.07;44.13
75617;BME280;64200;55.426;37.758;2023-08-06T17:49:56;99326.78;;;28.91;44.67
75617;BME280;64200;55.426;37.758;2023-08-06T17:54:56;99326.16;;;28.73;45.14
75617;BME280;64200;55.426;37.758;2023-08-06T17:59:57;99327.38;;;28.70;44.85
75617;BME280;64200;55.426;37.758;2023-08-06T18:04:57;99333.88;;;28.61;45.36
75617;BME280;64200;55.426;37.758;2023-08-06T18:09:58;99336.53;;;28.49;45.40
75617;BME280;64200;55.426;37.758;2023-08-06T18:14:58;99341.50;;;28.38;45.80
75617;BME280;64200;55.426;37.758;2023-08-06T18:19:59;99340.88;;;28.30;46.14
75617;BME280;64200;55.426;37.758;2023-08-06T18:24:59;99340.97;;;28.13;46.53
75617;BME280;64200;55.426;37.758;2023-08-06T18:30:05;99342.28;;;28.02;46.67
75617;BME280;64200;55.426;37.758;2023-08-06T18:35:07;99355.19;;;27.93;46.99
75617;BME280;64200;55.426;37.758;2023-08-06T18:40:09;99342.19;;;27.82;47.57
75617;BME280;64200;55.426;37.758;2023-08-06T18:45:10;99351.78;;;27.77;47.43
75617;BME280;64200;55.426;37.758;2023-08-06T18:50:10;99344.50;;;27.66;47.75
75617;BME280;64200;55.426;37.758;2023-08-06T18:55:11;99337.63;;;27.52;48.25
75617;BME280;64200;55.426;37.758;2023-08-06T19:00:12;99341.38;;;27.45;48.62
75617;BME280;64200;55.426;37.758;2023-08-06T19:05:13;99339.19;;;27.36;48.81
75617;BME280;64200;55.426;37.758;2023-08-06T19:10:13;99339.72;;;27.24;49.20
75617;BME280;64200;55.426;37.758;2023-08-06T19:15:14;99336.28;;;27.08;49.43
75617;BME280;64200;55.426;37.758;2023-08-06T19:20:15;99333.06;;;27.04;49.95
75617;BME280;64200;55.426;37.758;2023-08-06T19:25:15;99334.50;;;26.95;50.19
75617;BME280;64200;55.426;37.758;2023-08-06T19:30:16;99327.94;;;26.85;50.59
75617;BME280;64200;55.426;37.758;2023-08-06T19:35:16;99326.59;;;26.69;51.09
75617;BME280;64200;55.426;37.758;2023-08-06T19:40:17;99314.88;;;26.57;51.21
75617;BME280;64200;55.426;37.758;2023-08-06T19:45:18;99324.63;;;26.54;51.36
75617;BME280;64200;55.426;37.758;2023-08-06T19:50:18;99333.09;;;26.44;51.59
75617;BME280;64200;55.426;37.758;2023-08-06T19:55:19;99326.28;;;26.39;51.44
75617;BME280;64200;55.426;37.758;2023-08-06T20:00:19;99326.53;;;26.34;51.84
75617;BME280;64200;55.426;37.758;2023-08-06T20:05:20;99328.94;;;26.20;52.70
75617;BME280;64200;55.426;37.758;2023-08-06T20:10:20;99327.47;;;26.11;53.29
75617;BME280;64200;55.426;37.758;2023-08-06T20:15:21;99323.66;;;25.83;53.79
75617;BME280;64200;55.426;37.758;2023-08-06T20:20:21;99319.47;;;25.84;53.62
75617;BME280;64200;55.426;37.758;2023-08-06T20:25:22;99308.31;;;25.71;54.52
75617;BME280;64200;55.426;37.758;2023-08-06T20:30:22;99320.09;;;25.50;55.73
75617;BME280;64200;55.426;37.758;2023-08-06T20:35:23;99321.41;;;25.49;55.58
75617;BME280;64200;55.426;37.758;2023-08-06T20:40:23;99318.97;;;25.45;55.19
75617;BME280;64200;55.426;37.758;2023-08-06T20:45:24;99319.41;;;25.34;55.98
75617;BME280;64200;55.426;37.758;2023-08-06T20:50:24;99308.81;;;25.11;56.42
75617;BME280;64200;55.426;37.758;2023-08-06T20:55:26;99315.88;;;25.10;57.18
75617;BME280;64200;55.426;37.758;2023-08-06T21:00:27;99316.28;;;25.06;56.99
75617;BME280;64200;55.426;37.758;2023-08-06T21:05:27;99313.47;;;24.91;57.64
75617;BME280;64200;55.426;37.758;2023-08-06T21:10:29;99323.41;;;24.75;58.32
75617;BME280;64200;55.426;37.758;2023-08-06T21:15:30;99319.59;;;24.72;58.43
75617;BME280;64200;55.426;37.758;2023-08-06T21:20:30;99312.00;;;24.67;58.05
75617;BME280;64200;55.426;37.758;2023-08-06T21:25:31;99320.94;;;24.71;58.51
75617;BME280;64200;55.426;37.758;2023-08-06T21:30:31;99319.44;;;24.62;58.43
75617;BME280;64200;55.426;37.758;2023-08-06T21:35:32;99316.97;;;24.59;58.67
75617;BME280;64200;55.426;37.758;2023-08-06T21:40:33;99312.38;;;24.55;58.55
75617;BME280;64200;55.426;37.758;2023-08-06T21:45:34;99310.09;;;24.54;58.70
75617;BME280;64200;55.426;37.758;2023-08-06T21:50:35;99320.00;;;24.45;59.02
75617;BME280;64200;55.426;37.758;2023-08-06T21:55:36;99322.47;;;24.33;59.34
75617;BME280;64200;55.426;37.758;2023-08-06T22:00:36;99313.94;;;24.26;59.53
75617;BME280;64200;55.426;37.758;2023-08-06T22:05:37;99324.03;;;24.27;59.73
75617;BME280;64200;55.426;37.758;2023-08-06T22:10:37;99318.50;;;24.29;59.66
75617;BME280;64200;55.426;37.758;2023-08-06T22:15:38;99326.84;;;24.19;60.09
75617;BME280;64200;55.426;37.758;2023-08-06T22:20:38;99321.16;;;24.19;59.97
75617;BME280;64200;55.426;37.758;2023-08-06T22:25:39;99325.34;;;24.18;60.00
75617;BME280;64200;55.426;37.758;2023-08-06T22:30:39;99328.03;;;24.24;59.82
75617;BME280;64200;55.426;37.758;2023-08-06T22:35:41;99313.56;;;24.14;59.62
75617;BME280;64200;55.426;37.758;2023-08-06T22:40:41;99310.53;;;24.12;60.13
75617;BME280;64200;55.426;37.758;2023-08-06T22:45:42;99310.34;;;24.10;60.32
75617;BME280;64200;55.426;37.758;2023-08-06T22:50:42;99315.06;;;24.07;60.77
75617;BME280;64200;55.426;37.758;2023-08-06T22:55:43;99312.63;;;23.96;60.78
75617;BME280;64200;55.426;37.758;2023-08-06T23:00:43;99312.41;;;23.94;61.14
75617;BME280;64200;55.426;37.758;2023-08-06T23:05:44;99291.13;;;23.79;61.34
75617;BME280;64200;55.426;37.758;2023-08-06T23:10:44;99304.22;;;23.82;61.18
75617;BME280;64200;55.426;37.758;2023-08-06T23:15:45;99293.00;;;23.69;61.37
75617;BME280;64200;55.426;37.758;2023-08-06T23:20:46;99290.34;;;23.71;61.19
75617;BME280;64200;55.426;37.758;2023-08-06T23:25:46;99291.66;;;23.62;61.33
75617;BME280;64200;55.426;37.758;2023-08-06T23:30:47;99298.16;;;23.71;60.91
75617;BME280;64200;55.426;37.758;2023-08-06T23:35:52;99308.75;;;23.70;61.04
75617;BME280;64200;55.426;37.758;2023-08-06T23:40:52;99289.19;;;23.59;61.07
75617;BME280;64200;55.426;37.758;2023-08-06T23:45:53;99281.00;;;23.47;61.02
75617;BME280;64200;55.426;37.758;2023-08-06T23:50:56;99291.81;;;23.41;61.15
75617;BME280;64200;55.426;37.758;2023-08-06T23:55:56;99288.97;;;23.33;61.81
